createdAt,value
2018-04-16T00:00:26.213Z,101061.08
2018-04-16T00:03:29.705Z,101061.92
2018-04-16T00:06:33.109Z,101073.97
2018-04-16T00:09:36.539Z,101075.84
2018-04-16T00:12:39.896Z,101086.04
2018-04-16T00:15:43.265Z,101093.52
2018-04-16T00:18:46.624Z,101091.70
2018-04-16T00:21:50.089Z,101103.85
2018-04-16T00:24:53.451Z,101081.45
2018-04-16T00:27:57.579Z,101075.45
2018-04-16T00:31:00.931Z,101069.27
2018-04-16T00:34:09.713Z,101046.39
2018-04-16T00:37:19.438Z,101050.28
2018-04-16T00:40:29.211Z,101050.30
2018-04-16T00:43:38.995Z,101032.16
2018-04-16T00:50:22.873Z,101017.48
2018-04-16T00:53:50.073Z,101021.22
2018-04-16T00:56:58.777Z,101023.47
2018-04-16T01:00:07.660Z,101034.61
2018-04-16T01:03:16.603Z,101042.70
2018-04-16T01:06:25.435Z,101041.41
2018-04-16T01:09:34.208Z,101044.15
2018-04-16T01:12:43.201Z,101043.55
2018-04-16T01:15:52.161Z,101035.12
2018-04-16T01:19:01.009Z,101029.23
2018-04-16T01:22:10.720Z,101038.38
2018-04-16T01:25:19.490Z,101027.70
2018-04-16T01:28:29.105Z,101039.05
2018-04-16T01:31:38.048Z,101041.63
2018-04-16T01:34:46.984Z,101040.56
2018-04-16T01:37:55.975Z,101046.71
2018-04-16T01:41:04.941Z,101032.63
2018-04-16T01:44:13.875Z,101016.80
2018-04-16T01:47:22.641Z,101009.23
2018-04-16T01:50:31.641Z,101009.43
2018-04-16T01:53:41.372Z,101004.09
2018-04-16T01:56:50.281Z,100991.72
2018-04-16T01:59:59.050Z,101015.77
2018-04-16T02:03:08.922Z,101022.98
2018-04-16T02:06:17.716Z,101020.88
2018-04-16T02:09:27.419Z,101019.59
2018-04-16T02:12:36.329Z,101032.14
2018-04-16T02:15:45.278Z,101025.44
2018-04-16T02:18:54.199Z,101026.66
2018-04-16T02:22:02.971Z,101036.18
2018-04-16T02:25:11.823Z,101030.80
2018-04-16T02:28:21.677Z,101013.14
2018-04-16T02:31:30.517Z,101015.73
2018-04-16T02:34:39.336Z,101027.03
2018-04-16T02:37:48.111Z,101028.22
2018-04-16T02:40:57.075Z,101028.47
2018-04-16T02:44:06.786Z,101014.23
2018-04-16T02:47:15.544Z,101014.20
2018-04-16T02:50:25.174Z,101014.23
2018-04-16T02:53:34.224Z,101017.19
2018-04-16T02:56:43.777Z,101019.45
2018-04-16T02:59:53.587Z,101015.06
2018-04-16T03:03:02.357Z,101018.98
2018-04-16T03:06:12.063Z,101004.86
2018-04-16T03:09:21.083Z,101011.85
2018-04-16T03:12:29.953Z,101012.23
2018-04-16T03:15:39.704Z,101022.55
2018-04-16T03:18:49.441Z,101022.21
2018-04-16T03:21:58.267Z,101039.58
2018-04-16T03:25:07.090Z,101044.23
2018-04-16T03:28:16.038Z,101040.87
2018-04-16T03:31:25.661Z,101046.83
2018-04-16T03:34:35.490Z,101045.06
2018-04-16T03:37:44.322Z,101043.94
2018-04-16T03:40:53.287Z,101049.78
2018-04-16T03:44:02.980Z,101049.03
2018-04-16T03:47:11.951Z,101064.84
2018-04-16T03:50:20.913Z,101067.12
2018-04-16T03:57:00.277Z,101053.06
2018-04-16T04:00:03.628Z,101034.42
2018-04-16T04:03:06.993Z,101038.39
2018-04-16T04:06:10.420Z,101046.64
2018-04-16T04:09:13.813Z,101060.20
2018-04-16T04:12:17.149Z,101071.70
2018-04-16T04:15:21.277Z,101070.05
2018-04-16T04:18:25.404Z,101059.59
2018-04-16T04:21:28.872Z,101059.52
2018-04-16T04:24:50.168Z,101057.67
2018-04-16T04:28:11.470Z,101065.56
2018-04-16T04:31:14.871Z,101070.31
2018-04-16T04:34:18.229Z,101060.05
2018-04-16T04:37:22.429Z,101061.15
2018-04-16T04:40:25.787Z,101066.28
2018-04-16T04:43:29.235Z,101069.23
2018-04-16T04:46:32.665Z,101067.48
2018-04-16T04:49:36.051Z,101081.02
2018-04-16T04:52:40.190Z,101081.56
2018-04-16T04:55:43.553Z,101064.58
2018-04-16T04:58:46.937Z,101064.37
2018-04-16T05:01:51.055Z,101063.66
2018-04-16T05:04:54.412Z,101052.90
2018-04-16T05:07:57.767Z,101051.34
2018-04-16T05:11:01.128Z,101062.12
2018-04-16T05:14:04.471Z,101061.69
2018-04-16T05:17:08.666Z,101067.31
2018-04-16T05:20:12.027Z,101076.80
2018-04-16T05:23:15.372Z,101072.64
2018-04-16T05:26:19.496Z,101076.88
2018-04-16T05:29:22.857Z,101079.62
2018-04-16T05:32:26.240Z,101091.09
2018-04-16T05:35:29.605Z,101091.20
2018-04-16T05:38:33.728Z,101097.39
2018-04-16T05:41:37.880Z,101095.50
2018-04-16T05:44:41.259Z,101107.33
2018-04-16T05:47:44.617Z,101111.90
2018-04-16T05:50:47.978Z,101117.72
2018-04-16T05:53:51.434Z,101115.07
2018-04-16T05:56:55.592Z,101113.81
2018-04-16T05:59:59.158Z,101117.40
2018-04-16T06:03:03.286Z,101120.68
2018-04-16T06:06:07.411Z,101112.05
2018-04-16T06:09:10.783Z,101110.62
2018-04-16T06:12:14.976Z,101111.27
2018-04-16T06:15:18.447Z,101111.59
2018-04-16T06:18:22.051Z,101114.01
2018-04-16T06:21:25.456Z,101126.75
2018-04-16T06:24:28.825Z,101130.56
2018-04-16T06:27:33.154Z,101119.78
2018-04-16T06:30:36.511Z,101128.95
2018-04-16T06:33:39.894Z,101132.58
2018-04-16T06:36:43.252Z,101123.94
2018-04-16T06:39:46.632Z,101116.39
2018-04-16T06:42:50.759Z,101113.45
2018-04-16T06:45:54.917Z,101109.13
2018-04-16T06:48:58.312Z,101104.91
2018-04-16T06:52:01.805Z,101095.58
2018-04-16T06:55:05.340Z,101099.31
2018-04-16T06:58:08.700Z,101096.98
2018-04-16T07:01:12.054Z,101097.11
2018-04-16T07:04:15.455Z,101105.50
2018-04-16T07:07:18.833Z,101103.88
2018-04-16T07:10:22.213Z,101106.97
2018-04-16T07:13:25.577Z,101107.36
2018-04-16T07:16:29.726Z,101100.73
2018-04-16T07:19:33.104Z,101099.73
2018-04-16T07:22:36.475Z,101093.59
2018-04-16T07:25:39.832Z,101095.45
2018-04-16T07:28:43.224Z,101085.48
2018-04-16T07:31:46.580Z,101102.03
2018-04-16T07:34:50.905Z,101111.44
2018-04-16T07:37:55.065Z,101114.08
2018-04-16T07:40:58.436Z,101120.55
2018-04-16T07:44:01.796Z,101119.85
2018-04-16T07:47:05.953Z,101115.94
2018-04-16T07:50:09.404Z,101127.41
2018-04-16T07:53:12.923Z,101134.27
2018-04-16T07:56:16.353Z,101135.84
2018-04-16T07:59:20.487Z,101132.89
2018-04-16T08:02:23.856Z,101131.23
2018-04-16T08:05:28.027Z,101141.27
2018-04-16T08:08:31.469Z,101134.57
2018-04-16T08:11:35.605Z,101133.38
2018-04-16T08:14:39.006Z,101130.78
2018-04-16T08:17:42.371Z,101136.85
2018-04-16T08:20:45.756Z,101143.45
2018-04-16T08:23:49.135Z,101152.55
2018-04-16T08:26:52.503Z,101160.23
2018-04-16T08:29:55.867Z,101167.59
2018-04-16T08:32:59.415Z,101167.28
2018-04-16T08:36:02.789Z,101155.71
2018-04-16T08:39:07.025Z,101175.78
2018-04-16T08:42:10.397Z,101169.73
2018-04-16T08:45:13.776Z,101170.05
2018-04-16T08:48:17.191Z,101170.98
2018-04-16T08:51:20.553Z,101172.56
2018-04-16T08:54:24.024Z,101166.81
2018-04-16T08:57:27.397Z,101169.67
2018-04-16T09:00:30.779Z,101172.69
2018-04-16T09:03:34.158Z,101166.88
2018-04-16T09:06:37.511Z,101173.41
2018-04-16T09:09:41.661Z,101176.09
2018-04-16T09:12:45.023Z,101183.19
2018-04-16T09:15:49.154Z,101182.60
2018-04-16T09:18:52.516Z,101176.50
2018-04-16T09:21:55.973Z,101186.70
2018-04-16T09:24:59.542Z,101183.84
2018-04-16T09:28:03.704Z,101181.77
2018-04-16T09:31:07.207Z,101178.01
2018-04-16T09:34:10.580Z,101182.88
2018-04-16T09:37:13.933Z,101177.22
2018-04-16T09:40:17.292Z,101167.16
2018-04-16T09:43:20.662Z,101170.20
2018-04-16T09:46:24.800Z,101165.84
2018-04-16T09:49:28.168Z,101175.03
2018-04-16T09:52:31.559Z,101171.98
2018-04-16T09:55:35.014Z,101178.56
2018-04-16T09:58:38.393Z,101171.53
2018-04-16T10:01:41.828Z,101175.41
2018-04-16T10:04:45.230Z,101175.83
2018-04-16T10:07:48.605Z,101181.98
2018-04-16T10:10:51.970Z,101182.36
2018-04-16T10:13:55.363Z,101187.19
2018-04-16T10:16:58.906Z,101194.62
2018-04-16T10:20:02.331Z,101189.40
2018-04-16T10:23:05.704Z,101187.23
2018-04-16T10:26:09.189Z,101188.13
2018-04-16T10:29:13.415Z,101182.03
2018-04-16T10:32:16.798Z,101180.26
2018-04-16T10:35:20.931Z,101180.75
2018-04-16T10:38:25.072Z,101178.97
2018-04-16T10:41:28.435Z,101177.86
2018-04-16T10:44:32.595Z,101178.03
2018-04-16T10:47:35.970Z,101175.20
2018-04-16T10:50:39.508Z,101180.61
2018-04-16T10:53:42.924Z,101181.02
2018-04-16T10:56:46.287Z,101176.76
2018-04-16T10:59:49.760Z,101177.21
2018-04-16T11:02:53.899Z,101176.49
2018-04-16T11:05:57.292Z,101176.95
2018-04-16T11:09:00.645Z,101173.47
2018-04-16T11:12:04.009Z,101175.92
2018-04-16T11:15:07.390Z,101177.73
2018-04-16T11:18:10.798Z,101173.91
2018-04-16T11:21:14.184Z,101181.11
2018-04-16T11:24:17.554Z,101181.13
2018-04-16T11:27:20.954Z,101186.84
2018-04-16T11:30:24.335Z,101191.23
2018-04-16T11:33:27.710Z,101188.14
2018-04-16T11:36:31.107Z,101189.06
2018-04-16T11:39:34.598Z,101189.47
2018-04-16T11:42:37.960Z,101196.05
2018-04-16T11:45:41.383Z,101192.97
2018-04-16T11:48:44.755Z,101199.09
2018-04-16T11:51:48.119Z,101205.63
2018-04-16T11:54:51.568Z,101207.31
2018-04-16T11:57:55.731Z,101208.61
2018-04-16T12:00:59.105Z,101212.98
2018-04-16T12:04:02.643Z,101215.92
2018-04-16T12:07:06.022Z,101214.47
2018-04-16T12:10:09.628Z,101220.99
2018-04-16T12:13:12.999Z,101220.83
2018-04-16T12:16:17.146Z,101220.52
2018-04-16T12:19:20.536Z,101213.17
2018-04-16T12:22:23.970Z,101219.35
2018-04-16T12:25:27.317Z,101224.75
2018-04-16T12:28:31.630Z,101222.63
2018-04-16T12:31:35.775Z,101217.10
2018-04-16T12:34:44.809Z,101217.10
2018-04-16T12:37:48.192Z,101218.61
2018-04-16T12:40:57.028Z,101220.47
2018-04-16T12:44:06.194Z,101218.02
2018-04-16T12:47:09.576Z,101216.11
2018-04-16T12:50:24.215Z,101212.95
2018-04-16T12:53:27.591Z,101221.43
2018-04-16T12:56:31.074Z,101216.55
2018-04-16T12:59:34.474Z,101216.00
2018-04-16T13:02:37.859Z,101216.47
2018-04-16T13:05:41.293Z,101233.28
2018-04-16T13:08:44.697Z,101231.54
2018-04-16T13:11:48.087Z,101233.44
2018-04-16T13:14:51.456Z,101230.50
2018-04-16T13:18:00.646Z,101241.53
2018-04-16T13:21:10.751Z,101243.92
2018-04-16T13:24:20.058Z,101228.70
2018-04-16T13:27:29.251Z,101221.37
2018-04-16T13:30:38.552Z,101227.20
2018-04-16T13:33:41.945Z,101233.57
2018-04-16T13:36:51.330Z,101236.52
2018-04-16T13:40:06.470Z,101241.02
2018-04-16T13:43:09.855Z,101250.77
2018-04-16T13:46:13.321Z,101244.00
2018-04-16T13:49:23.563Z,101240.53
2018-04-16T13:52:26.948Z,101244.36
2018-04-16T13:55:30.416Z,101232.61
2018-04-16T13:58:33.823Z,101234.31
2018-04-16T14:01:43.001Z,101245.48
2018-04-16T14:04:46.481Z,101251.27
2018-04-16T14:07:55.774Z,101257.12
2018-04-16T14:11:11.145Z,101255.41
2018-04-16T14:14:21.384Z,101259.78
2018-04-16T14:17:24.760Z,101261.91
2018-04-16T14:20:40.197Z,101256.25
2018-04-16T14:23:49.643Z,101258.14
2018-04-16T14:26:53.135Z,101266.39
2018-04-16T14:30:02.959Z,101270.14
2018-04-16T14:33:06.343Z,101278.44
2018-04-16T14:36:15.469Z,101279.99
2018-04-16T14:39:24.782Z,101282.47
2018-04-16T14:42:34.307Z,101283.58
2018-04-16T14:45:37.732Z,101299.77
2018-04-16T14:48:41.126Z,101304.20
2018-04-16T14:51:55.875Z,101301.99
2018-04-16T14:54:59.255Z,101314.56
2018-04-16T14:58:03.410Z,101315.70
2018-04-16T15:01:12.635Z,101310.67
2018-04-16T15:04:15.992Z,101316.84
2018-04-16T15:07:25.245Z,101308.44
2018-04-16T15:10:40.860Z,101323.30
2018-04-16T15:13:44.219Z,101320.45
2018-04-16T15:16:53.495Z,101319.90
2018-04-16T15:19:56.893Z,101324.74
2018-04-16T15:23:00.260Z,101331.05
2018-04-16T15:26:03.640Z,101334.25
2018-04-16T15:29:07.037Z,101335.79
2018-04-16T15:32:10.431Z,101338.97
2018-04-16T15:35:13.818Z,101343.77
2018-04-16T15:38:17.184Z,101339.67
2018-04-16T15:41:20.537Z,101350.48
2018-04-16T15:44:23.942Z,101342.13
2018-04-16T15:47:27.297Z,101356.53
2018-04-16T15:50:30.674Z,101353.05
2018-04-16T15:53:34.852Z,101358.19
2018-04-16T15:56:38.389Z,101353.47
2018-04-16T15:59:42.622Z,101349.84
2018-04-16T16:02:46.004Z,101350.45
2018-04-16T16:05:50.143Z,101357.93
2018-04-16T16:08:53.565Z,101371.37
2018-04-16T16:11:56.943Z,101372.72
2018-04-16T16:15:00.333Z,101372.59
2018-04-16T16:18:03.762Z,101387.15
2018-04-16T16:21:07.168Z,101383.59
2018-04-16T16:24:10.574Z,101387.14
2018-04-16T16:27:13.964Z,101392.57
2018-04-16T16:30:17.473Z,101401.12
2018-04-16T16:33:20.858Z,101402.22
2018-04-16T16:36:24.268Z,101400.86
2018-04-16T16:39:27.881Z,101396.47
2018-04-16T16:42:31.443Z,101401.75
2018-04-16T16:45:35.872Z,101410.18
2018-04-16T16:48:39.240Z,101404.23
2018-04-16T16:51:42.642Z,101400.59
2018-04-16T16:54:46.035Z,101404.11
2018-04-16T16:57:49.488Z,101411.97
2018-04-16T17:00:52.894Z,101416.35
2018-04-16T17:03:56.310Z,101422.31
2018-04-16T17:06:59.701Z,101421.54
2018-04-16T17:10:03.084Z,101421.64
2018-04-16T17:13:06.464Z,101422.39
2018-04-16T17:16:10.599Z,101430.13
2018-04-16T17:19:13.977Z,101436.95
2018-04-16T17:22:18.121Z,101445.70
2018-04-16T17:25:21.508Z,101452.03
2018-04-16T17:28:24.892Z,101457.61
2018-04-16T17:31:29.134Z,101461.39
2018-04-16T17:34:33.255Z,101464.77
2018-04-16T17:37:36.629Z,101470.32
2018-04-16T17:40:40.821Z,101478.44
2018-04-16T17:43:44.200Z,101472.00
2018-04-16T17:46:47.783Z,101474.28
2018-04-16T17:49:51.161Z,101478.34
2018-04-16T17:52:54.560Z,101485.77
2018-04-16T17:55:57.995Z,101492.09
2018-04-16T17:59:01.396Z,101498.05
2018-04-16T18:02:04.806Z,101503.59
2018-04-16T18:05:08.218Z,101521.80
2018-04-16T18:08:11.644Z,101526.33
2018-04-16T18:11:15.827Z,101531.72
2018-04-16T18:14:19.232Z,101530.58
2018-04-16T18:17:22.618Z,101535.52
2018-04-16T18:20:26.026Z,101535.30
2018-04-16T18:23:29.471Z,101542.61
2018-04-16T18:26:33.662Z,101547.78
2018-04-16T18:29:37.206Z,101546.91
2018-04-16T18:32:40.589Z,101541.20
2018-04-16T18:35:44.746Z,101541.47
2018-04-16T18:38:48.112Z,101556.10
2018-04-16T18:41:52.256Z,101562.83
2018-04-16T18:44:55.640Z,101565.25
2018-04-16T18:47:59.020Z,101558.54
2018-04-16T18:51:02.444Z,101564.24
2018-04-16T18:54:05.830Z,101574.22
2018-04-16T18:57:09.981Z,101588.73
2018-04-16T19:00:13.508Z,101597.11
2018-04-16T19:03:16.896Z,101605.09
2018-04-16T19:06:20.365Z,101600.52
2018-04-16T19:09:23.797Z,101597.63
2018-04-16T19:12:27.298Z,101603.11
2018-04-16T19:15:30.784Z,101598.98
2018-04-16T19:18:34.367Z,101601.00
2018-04-16T19:21:43.370Z,101611.62
2018-04-16T19:24:46.758Z,101612.27
2018-04-16T19:27:55.526Z,101618.55
2018-04-16T19:30:58.896Z,101617.96
2018-04-16T19:34:07.827Z,101624.31
2018-04-16T19:37:11.184Z,101616.26
2018-04-16T19:40:14.577Z,101618.63
2018-04-16T19:43:17.953Z,101617.95
2018-04-16T19:46:21.293Z,101624.25
2018-04-16T19:49:30.250Z,101629.67
2018-04-16T19:52:33.700Z,101634.62
2018-04-16T19:55:43.291Z,101635.74
2018-04-16T19:58:46.676Z,101637.30
2018-04-16T20:01:55.650Z,101642.05
2018-04-16T20:04:59.797Z,101649.64
2018-04-16T20:08:03.188Z,101645.15
2018-04-16T20:11:06.573Z,101647.11
2018-04-16T20:14:09.937Z,101648.53
2018-04-16T20:17:13.342Z,101667.28
2018-04-16T20:20:16.708Z,101672.71
2018-04-16T20:23:20.107Z,101664.52
2018-04-16T20:26:23.494Z,101657.23
2018-04-16T20:29:26.893Z,101658.72
2018-04-16T20:32:30.276Z,101658.97
2018-04-16T20:35:33.672Z,101664.67
2018-04-16T20:38:37.063Z,101666.09
2018-04-16T20:41:41.192Z,101664.74
2018-04-16T20:44:44.552Z,101671.53
2018-04-16T20:47:47.890Z,101669.84
2018-04-16T20:50:51.263Z,101669.69
2018-04-16T20:53:54.626Z,101674.73
2018-04-16T20:56:57.995Z,101671.08
2018-04-16T21:00:01.376Z,101680.47
2018-04-16T21:03:05.496Z,101674.68
2018-04-16T21:06:09.776Z,101686.40
2018-04-16T21:09:13.170Z,101686.12
2018-04-16T21:12:16.556Z,101684.11
2018-04-16T21:15:19.934Z,101680.87
2018-04-16T21:18:23.301Z,101689.22
2018-04-16T21:21:27.434Z,101695.88
2018-04-16T21:24:30.821Z,101698.70
2018-04-16T21:27:35.058Z,101698.48
2018-04-16T21:30:38.502Z,101709.00
2018-04-16T21:33:41.871Z,101715.71
2018-04-16T21:36:45.219Z,101714.20
2018-04-16T21:39:48.736Z,101710.53
2018-04-16T21:42:52.848Z,101718.20
2018-04-16T21:45:56.237Z,101718.16
2018-04-16T21:48:59.636Z,101725.88
2018-04-16T21:52:03.068Z,101728.22
2018-04-16T21:55:06.429Z,101734.79
2018-04-16T21:58:09.854Z,101737.55
2018-04-16T22:01:14.009Z,101738.66
2018-04-16T22:04:17.388Z,101733.69
2018-04-16T22:07:20.982Z,101736.36
2018-04-16T22:10:25.114Z,101748.11
2018-04-16T22:13:28.937Z,101752.41
2018-04-16T22:16:32.363Z,101754.12
2018-04-16T22:19:35.773Z,101754.50
2018-04-16T22:22:39.208Z,101749.74
2018-04-16T22:25:42.585Z,101751.53
2018-04-16T22:28:46.223Z,101744.98
2018-04-16T22:31:49.592Z,101752.85
2018-04-16T22:34:53.029Z,101750.49
2018-04-16T22:37:56.487Z,101764.63
2018-04-16T22:40:59.873Z,101761.38
2018-04-16T22:44:03.218Z,101768.00
2018-04-16T22:47:06.595Z,101766.91
2018-04-16T22:50:09.981Z,101765.41
2018-04-16T22:53:13.344Z,101770.78
2018-04-16T22:56:16.719Z,101776.17
2018-04-16T22:59:20.087Z,101780.83
2018-04-16T23:02:23.453Z,101788.01
2018-04-16T23:05:26.926Z,101793.48
2018-04-16T23:08:30.320Z,101800.53
2018-04-16T23:11:33.683Z,101805.48
2018-04-16T23:14:37.063Z,101800.74
2018-04-16T23:17:40.477Z,101811.55
2018-04-16T23:20:44.639Z,101818.75
2018-04-16T23:23:48.034Z,101818.52
2018-04-16T23:26:52.165Z,101825.81
2018-04-16T23:29:55.532Z,101816.79
2018-04-16T23:32:59.674Z,101817.73
2018-04-16T23:36:03.039Z,101818.27
2018-04-16T23:39:07.288Z,101826.82
2018-04-16T23:42:10.763Z,101829.94
2018-04-16T23:45:14.671Z,101828.14
2018-04-16T23:48:18.028Z,101828.61
2018-04-16T23:51:21.394Z,101837.55
2018-04-16T23:54:25.639Z,101834.22
2018-04-16T23:57:29.044Z,101831.23
